createdAt,value
2022-09-20T00:02:10.091Z,5.80
2022-09-20T00:04:39.553Z,6.45
2022-09-20T00:07:07.589Z,4.82
2022-09-20T00:09:35.628Z,6.05
2022-09-20T00:12:03.719Z,8.23
2022-09-20T00:14:32.189Z,7.53
2022-09-20T00:17:00.324Z,6.63
2022-09-20T00:19:28.584Z,10.60
2022-09-20T00:21:58.022Z,5.32
2022-09-20T00:24:26.367Z,5.50
2022-09-20T00:26:55.185Z,10.40
2022-09-20T00:29:23.447Z,4.80
2022-09-20T00:31:51.559Z,6.13
2022-09-20T00:34:36.961Z,6.38
2022-09-20T00:37:06.404Z,5.97
2022-09-20T00:39:34.425Z,6.38
2022-09-20T00:42:02.460Z,6.78
2022-09-20T00:44:44.127Z,7.65
2022-09-20T00:47:15.233Z,5.53
2022-09-20T00:49:43.340Z,5.82
2022-09-20T00:52:12.743Z,6.53
2022-09-20T00:54:40.841Z,5.07
2022-09-20T00:57:08.888Z,7.95
2022-09-20T00:59:38.234Z,5.30
2022-09-20T01:02:09.598Z,4.35
2022-09-20T01:04:39.018Z,6.88
2022-09-20T01:07:07.222Z,6.88
2022-09-20T01:09:36.665Z,6.00
2022-09-20T01:12:06.344Z,4.75
2022-09-20T01:14:34.531Z,8.32
2022-09-20T01:17:04.281Z,5.78
2022-09-20T01:19:35.777Z,4.82
2022-09-20T01:22:05.174Z,5.70
2022-09-20T01:24:35.604Z,5.50
2022-09-20T01:27:11.655Z,6.53
2022-09-20T01:30:00.751Z,5.30
2022-09-20T01:32:32.001Z,6.47
2022-09-20T01:35:01.030Z,6.15
2022-09-20T01:37:29.839Z,6.40
2022-09-20T01:40:03.202Z,7.03
2022-09-20T01:42:34.319Z,4.18
2022-09-20T01:45:06.117Z,5.00
2022-09-20T01:47:36.951Z,4.72
2022-09-20T01:50:10.622Z,4.28
2022-09-20T01:52:57.156Z,8.13
2022-09-20T01:55:43.589Z,7.93
2022-09-20T01:58:33.642Z,6.93
2022-09-20T02:01:24.547Z,4.93
2022-09-20T02:04:09.710Z,5.50
2022-09-20T02:06:46.928Z,8.73
2022-09-20T02:09:50.763Z,4.13
2022-09-20T02:12:40.739Z,5.38
2022-09-20T02:15:12.722Z,6.18
2022-09-20T02:17:47.489Z,4.55
2022-09-20T02:20:20.616Z,5.63
2022-09-20T02:23:24.194Z,4.38
2022-09-20T02:26:07.344Z,5.47
2022-09-20T02:28:46.237Z,4.57
2022-09-20T02:31:17.855Z,5.82
2022-09-20T02:33:59.587Z,7.25
2022-09-20T02:36:36.066Z,4.68
2022-09-20T02:39:08.087Z,4.22
2022-09-20T02:41:55.828Z,4.82
2022-09-20T02:44:30.705Z,4.70
2022-09-20T02:47:03.128Z,4.20
2022-09-20T02:49:36.300Z,4.65
2022-09-20T02:52:08.285Z,5.07
2022-09-20T02:54:41.986Z,6.63
2022-09-20T02:57:15.823Z,3.78
2022-09-20T02:59:47.324Z,3.55
2022-09-20T03:02:21.196Z,3.33
2022-09-20T03:04:56.511Z,4.10
2022-09-20T03:07:27.667Z,5.05
2022-09-20T03:10:00.099Z,4.03
2022-09-20T03:12:33.372Z,4.25
2022-09-20T03:15:05.880Z,5.40
2022-09-20T03:17:42.330Z,4.82
2022-09-20T03:20:18.564Z,4.18
2022-09-20T03:22:53.275Z,4.07
2022-09-20T03:25:40.459Z,7.93
2022-09-20T03:28:16.035Z,3.92
2022-09-20T03:30:51.850Z,5.05
2022-09-20T03:33:24.444Z,4.43
2022-09-20T03:36:00.111Z,3.97
2022-09-20T03:38:40.844Z,4.90
2022-09-20T03:41:37.183Z,4.45
2022-09-20T03:44:13.697Z,4.88
2022-09-20T03:46:45.088Z,3.42
2022-09-20T03:49:43.054Z,4.32
2022-09-20T03:52:16.801Z,4.13
2022-09-20T03:55:09.706Z,4.03
2022-09-20T03:57:52.563Z,4.30
2022-09-20T04:00:31.172Z,4.00
2022-09-20T04:03:15.061Z,4.22
2022-09-20T04:05:50.383Z,4.93
2022-09-20T04:08:26.507Z,5.32
2022-09-20T04:10:59.664Z,4.78
2022-09-20T04:13:36.127Z,4.75
2022-09-20T04:16:13.926Z,3.92
2022-09-20T04:18:44.577Z,3.45
2022-09-20T04:21:15.318Z,4.20
2022-09-20T04:23:48.774Z,5.28
2022-09-20T04:26:17.270Z,4.22
2022-09-20T04:28:48.669Z,4.85
2022-09-20T04:31:31.639Z,8.60
2022-09-20T04:33:59.712Z,2.75
2022-09-20T04:36:36.639Z,3.88
2022-09-20T04:39:13.221Z,4.40
2022-09-20T04:42:16.787Z,9.98
2022-09-20T04:45:05.931Z,3.70
2022-09-20T04:47:46.010Z,3.42
2022-09-20T04:50:40.146Z,3.67
2022-09-20T04:53:32.400Z,5.55
2022-09-20T04:56:04.148Z,5.57
2022-09-20T04:59:11.257Z,3.90
2022-09-20T05:02:19.343Z,4.53
2022-09-20T05:05:26.894Z,3.50
2022-09-20T05:08:36.869Z,3.40
2022-09-20T05:11:30.428Z,5.97
2022-09-20T05:14:06.196Z,4.88
2022-09-20T05:16:43.334Z,5.03
2022-09-20T05:19:21.729Z,3.47
2022-09-20T05:21:54.229Z,5.18
2022-09-20T05:24:28.567Z,10.88
2022-09-20T05:27:08.424Z,7.20
2022-09-20T05:29:40.554Z,16.77
2022-09-20T05:32:13.012Z,13.35
2022-09-20T05:34:44.068Z,15.25
2022-09-20T05:37:17.569Z,17.15
2022-09-20T05:39:48.761Z,17.35
2022-09-20T05:42:19.850Z,14.57
2022-09-20T05:45:01.972Z,18.70
2022-09-20T05:47:36.498Z,17.85
2022-09-20T05:50:25.629Z,15.57
2022-09-20T05:52:57.893Z,18.83
2022-09-20T05:55:41.262Z,21.38
2022-09-20T05:58:18.622Z,24.05
2022-09-20T06:00:48.600Z,17.58
2022-09-20T06:03:19.803Z,16.20
2022-09-20T06:05:51.391Z,23.48
2022-09-20T06:08:39.994Z,26.73
2022-09-20T06:11:15.947Z,20.02
2022-09-20T06:14:00.271Z,16.08
2022-09-20T06:16:32.568Z,16.13
2022-09-20T06:19:06.050Z,13.52
2022-09-20T06:21:42.668Z,21.90
2022-09-20T06:24:19.641Z,17.08
2022-09-20T06:26:47.750Z,15.43
2022-09-20T06:29:17.233Z,16.63
2022-09-20T06:31:45.355Z,15.55
2022-09-20T06:34:14.752Z,19.92
2022-09-20T06:37:02.725Z,18.63
2022-09-20T06:40:06.694Z,15.40
2022-09-20T06:42:34.834Z,12.40
2022-09-20T06:45:04.555Z,16.85
2022-09-20T06:47:35.733Z,11.45
2022-09-20T06:50:07.462Z,12.15
2022-09-20T06:52:35.636Z,12.05
2022-09-20T06:55:07.371Z,13.32
2022-09-20T06:57:37.819Z,13.50
2022-09-20T07:00:11.518Z,12.20
2022-09-20T07:02:39.660Z,16.00
2022-09-20T07:05:11.418Z,12.48
2022-09-20T07:07:39.459Z,13.65
2022-09-20T07:10:07.865Z,12.13
2022-09-20T07:12:36.169Z,13.32
2022-09-20T07:15:04.544Z,16.92
2022-09-20T07:17:34.138Z,13.02
2022-09-20T07:20:02.514Z,14.65
2022-09-20T07:22:30.656Z,13.18
2022-09-20T07:25:02.529Z,16.35
2022-09-20T07:27:30.629Z,71.95
2022-09-20T07:29:58.737Z,54.50
2022-09-20T07:32:27.220Z,61.88
2022-09-20T07:34:57.081Z,51.53
2022-09-20T07:37:25.223Z,65.35
2022-09-20T07:39:53.309Z,48.38
2022-09-20T07:42:21.405Z,70.82
2022-09-20T07:44:50.761Z,44.85
2022-09-20T07:47:18.821Z,38.10
2022-09-20T07:49:46.900Z,44.58
2022-09-20T07:52:16.306Z,45.65
2022-09-20T07:54:45.846Z,39.13
2022-09-20T07:57:13.927Z,37.75
2022-09-20T07:59:41.953Z,41.97
2022-09-20T08:02:11.442Z,50.88
2022-09-20T08:04:39.500Z,44.97
2022-09-20T08:07:07.521Z,45.97
2022-09-20T08:09:37.239Z,32.58
2022-09-20T08:14:53.778Z,32.78
2022-09-20T08:17:21.831Z,30.90
2022-09-20T08:19:49.887Z,27.67
2022-09-20T08:22:17.910Z,40.75
2022-09-20T08:24:47.483Z,33.05
2022-09-20T08:27:15.557Z,30.30
2022-09-20T08:29:43.636Z,30.40
2022-09-20T08:32:12.209Z,36.42
2022-09-20T08:34:40.662Z,37.90
2022-09-20T08:37:08.733Z,30.13
2022-09-20T08:46:25.332Z,34.30
2022-09-20T08:48:53.647Z,27.08
2022-09-20T08:51:23.241Z,31.05
2022-09-20T08:53:52.346Z,30.35
2022-09-20T08:56:20.630Z,25.33
2022-09-20T08:58:48.722Z,28.92
2022-09-20T09:01:21.895Z,28.95
2022-09-20T09:03:52.458Z,26.25
2022-09-20T09:06:21.342Z,27.60
2022-09-20T09:08:53.823Z,22.52
2022-09-20T09:11:23.406Z,22.88
2022-09-20T09:13:54.054Z,20.85
2022-09-20T09:16:28.842Z,21.85
2022-09-20T09:19:36.040Z,22.73
2022-09-20T09:22:05.163Z,22.45
2022-09-20T09:24:33.232Z,18.40
2022-09-20T09:27:09.763Z,17.00
2022-09-20T09:29:37.837Z,25.60
2022-09-20T09:32:24.549Z,20.40
2022-09-20T09:34:52.636Z,20.10
2022-09-20T09:37:29.066Z,17.90
2022-09-20T09:40:16.384Z,20.02
2022-09-20T09:42:54.643Z,29.75
2022-09-20T09:45:28.151Z,18.58
2022-09-20T09:47:57.925Z,22.70
2022-09-20T09:50:27.027Z,24.65
2022-09-20T09:53:07.473Z,20.90
2022-09-20T09:55:44.885Z,21.60
2022-09-20T09:58:16.027Z,22.92
2022-09-20T10:00:46.690Z,18.13
2022-09-20T10:03:26.538Z,23.05
2022-09-20T10:06:04.031Z,25.20
2022-09-20T10:08:35.341Z,19.05
2022-09-20T10:11:08.712Z,20.20
2022-09-20T10:13:40.803Z,19.17
2022-09-20T10:16:13.514Z,14.70
2022-09-20T10:18:47.419Z,17.52
2022-09-20T10:21:23.217Z,17.98
2022-09-20T10:24:03.547Z,17.30
2022-09-20T10:26:45.101Z,16.80
2022-09-20T10:29:18.180Z,13.93
2022-09-20T10:31:57.379Z,16.10
2022-09-20T10:35:04.114Z,17.30
2022-09-20T10:37:39.717Z,18.30
2022-09-20T10:40:11.566Z,15.85
2022-09-20T10:43:00.682Z,15.30
2022-09-20T10:45:59.626Z,17.45
2022-09-20T10:48:22.616Z,17.00
2022-09-20T10:50:52.911Z,13.98
2022-09-20T10:53:29.719Z,20.10
2022-09-20T10:56:07.258Z,23.80
2022-09-20T10:59:20.554Z,22.17
2022-09-20T11:01:55.262Z,23.85
2022-09-20T11:04:50.303Z,20.95
2022-09-20T11:07:19.375Z,22.33
2022-09-20T11:09:52.224Z,21.27
2022-09-20T11:12:24.802Z,20.45
2022-09-20T11:14:54.967Z,21.80
2022-09-20T11:17:24.969Z,23.33
2022-09-20T11:19:57.462Z,24.30
2022-09-20T11:22:27.427Z,28.73
2022-09-20T11:24:58.892Z,25.70
2022-09-20T11:27:29.742Z,22.90
2022-09-20T11:30:00.998Z,24.40
2022-09-20T11:32:32.772Z,25.63
2022-09-20T11:35:03.043Z,25.52
2022-09-20T11:37:33.626Z,23.25
2022-09-20T11:40:13.196Z,28.23
2022-09-20T11:42:42.370Z,21.35
2022-09-20T11:45:12.775Z,24.50
2022-09-20T11:47:54.496Z,24.17
2022-09-20T11:50:51.966Z,23.00
2022-09-20T11:53:33.262Z,20.98
2022-09-20T11:56:07.215Z,21.65
2022-09-20T11:58:48.861Z,21.65
2022-09-20T12:01:18.294Z,23.58
2022-09-20T12:03:46.435Z,21.67
2022-09-20T12:06:25.876Z,19.48
2022-09-20T12:08:54.154Z,19.73
2022-09-20T12:11:30.507Z,22.55
2022-09-20T12:14:02.604Z,22.02
2022-09-20T12:16:39.104Z,20.33
2022-09-20T12:19:08.442Z,22.05
2022-09-20T12:22:14.227Z,19.55
2022-09-20T12:24:45.518Z,22.02
2022-09-20T12:27:24.522Z,20.10
2022-09-20T12:30:04.644Z,17.20
2022-09-20T12:32:55.071Z,21.08
2022-09-20T12:35:57.431Z,18.98
2022-09-20T12:38:37.539Z,19.67
2022-09-20T12:41:08.955Z,20.65
2022-09-20T12:43:39.994Z,22.95
2022-09-20T12:46:11.995Z,20.98
2022-09-20T12:48:40.365Z,23.73
2022-09-20T12:51:36.863Z,23.25
2022-09-20T12:54:07.562Z,24.13
2022-09-20T12:56:36.981Z,23.42
2022-09-20T12:59:07.446Z,22.73
2022-09-20T13:01:40.325Z,24.45
2022-09-20T13:04:56.802Z,21.83
2022-09-20T13:07:43.799Z,20.10
2022-09-20T13:10:35.008Z,21.42
2022-09-20T13:13:13.829Z,20.60
2022-09-20T13:15:48.696Z,25.25
2022-09-20T13:18:18.838Z,20.73
2022-09-20T13:20:46.870Z,22.45
2022-09-20T13:23:20.308Z,17.60
2022-09-20T13:25:48.834Z,21.52
2022-09-20T13:28:22.969Z,21.30
2022-09-20T13:30:52.426Z,18.80
2022-09-20T13:33:23.143Z,21.10
2022-09-20T13:35:52.398Z,19.90
2022-09-20T13:38:25.098Z,16.45
2022-09-20T13:40:54.107Z,18.95
2022-09-20T13:43:28.258Z,18.90
2022-09-20T13:45:58.932Z,18.70
2022-09-20T13:48:28.277Z,18.30
2022-09-20T13:50:56.489Z,19.77
2022-09-20T13:53:40.483Z,16.77
2022-09-20T13:56:11.359Z,15.93
2022-09-20T13:58:39.409Z,16.25
2022-09-20T14:01:18.176Z,17.98
2022-09-20T14:03:46.599Z,19.52
2022-09-20T14:06:15.988Z,16.85
2022-09-20T14:08:45.428Z,14.27
2022-09-20T14:11:15.927Z,17.98
2022-09-20T14:13:44.884Z,15.77
2022-09-20T14:16:15.118Z,16.17
2022-09-20T14:18:43.258Z,15.95
2022-09-20T14:21:11.944Z,14.40
2022-09-20T14:23:50.988Z,13.40
2022-09-20T14:26:27.839Z,14.73
2022-09-20T14:28:56.028Z,14.65
2022-09-20T14:31:28.849Z,13.73
2022-09-20T14:33:59.203Z,13.65
2022-09-20T14:36:28.425Z,13.80
2022-09-20T14:38:57.865Z,13.35
2022-09-20T14:41:28.819Z,16.13
2022-09-20T14:43:57.798Z,13.38
2022-09-20T14:46:33.879Z,13.38
2022-09-20T14:49:20.999Z,11.98
2022-09-20T14:51:49.245Z,16.58
2022-09-20T14:54:25.472Z,11.60
2022-09-20T14:56:54.130Z,14.35
2022-09-20T14:59:24.953Z,19.45
2022-09-20T15:02:00.099Z,15.48
2022-09-20T15:04:28.688Z,12.32
2022-09-20T15:06:56.923Z,13.75
2022-09-20T15:09:25.133Z,11.20
2022-09-20T15:12:03.394Z,10.05
2022-09-20T15:14:37.004Z,11.75
2022-09-20T15:17:07.123Z,12.50
2022-09-20T15:19:35.186Z,16.73
2022-09-20T15:22:03.404Z,13.07
2022-09-20T15:24:31.432Z,14.60
2022-09-20T15:26:59.576Z,11.90
2022-09-20T15:29:27.673Z,14.88
2022-09-20T15:31:55.761Z,13.77
2022-09-20T15:34:25.274Z,13.98
2022-09-20T15:36:54.178Z,10.15
2022-09-20T15:39:23.697Z,15.75
2022-09-20T15:41:53.049Z,11.07
2022-09-20T15:44:21.317Z,14.32
2022-09-20T15:46:50.956Z,11.18
2022-09-20T15:49:19.355Z,10.98
2022-09-20T15:51:49.038Z,14.15
2022-09-20T15:54:17.133Z,13.57
2022-09-20T15:56:45.262Z,12.65
2022-09-20T15:59:15.321Z,12.20
2022-09-20T16:01:45.638Z,10.32
2022-09-20T16:04:14.643Z,12.98
2022-09-20T16:06:43.927Z,11.77
2022-09-20T16:09:15.384Z,10.65
2022-09-20T16:11:43.435Z,11.57
2022-09-20T16:14:11.685Z,12.13
2022-09-20T16:16:40.814Z,11.88
2022-09-20T16:19:20.886Z,10.02
2022-09-20T16:21:55.023Z,11.50
2022-09-20T16:24:26.987Z,11.50
2022-09-20T16:26:55.063Z,9.73
2022-09-20T16:29:25.117Z,12.05
2022-09-20T16:31:53.497Z,10.82
2022-09-20T16:34:22.894Z,10.40
2022-09-20T16:36:51.722Z,11.57
2022-09-20T16:39:20.183Z,8.60
2022-09-20T16:41:50.644Z,11.73
2022-09-20T16:44:18.718Z,16.25
2022-09-20T16:46:47.274Z,11.75
2022-09-20T16:49:16.757Z,10.85
2022-09-20T16:51:46.252Z,13.38
2022-09-20T16:54:15.812Z,11.68
2022-09-20T16:56:45.272Z,11.65
2022-09-20T16:59:15.631Z,9.73
2022-09-20T17:01:44.490Z,11.30
2022-09-20T17:04:14.285Z,9.50
2022-09-20T17:06:43.282Z,17.15
2022-09-20T17:09:11.563Z,9.98
2022-09-20T17:11:41.382Z,7.55
2022-09-20T17:14:10.048Z,10.68
2022-09-20T17:16:40.913Z,12.40
2022-09-20T17:19:11.025Z,8.15
2022-09-20T17:21:39.865Z,10.45
2022-09-20T17:24:08.388Z,9.48
2022-09-20T17:26:38.263Z,10.15
2022-09-20T17:29:07.676Z,9.80
2022-09-20T17:31:37.377Z,10.35
2022-09-20T17:34:07.765Z,11.45
2022-09-20T17:36:39.593Z,8.88
2022-09-20T17:39:09.993Z,8.23
2022-09-20T17:41:38.432Z,10.70
2022-09-20T17:44:08.274Z,8.43
2022-09-20T17:46:37.108Z,12.57
2022-09-20T17:49:07.479Z,9.27
2022-09-20T17:51:36.869Z,9.10
2022-09-20T17:54:05.068Z,7.82
2022-09-20T17:56:33.447Z,7.60
2022-09-20T17:59:02.243Z,11.57
2022-09-20T18:01:30.904Z,8.20
2022-09-20T18:03:59.832Z,9.35
2022-09-20T18:06:30.122Z,10.55
2022-09-20T18:08:58.922Z,8.55
2022-09-20T18:11:28.966Z,13.27
2022-09-20T18:13:57.055Z,7.72
2022-09-20T18:16:25.105Z,8.82
2022-09-20T18:18:53.275Z,7.88
2022-09-20T18:21:22.077Z,8.25
2022-09-20T18:23:52.124Z,8.23
2022-09-20T18:26:23.900Z,8.32
2022-09-20T18:28:53.418Z,8.07
2022-09-20T18:31:24.605Z,9.50
2022-09-20T18:33:59.537Z,8.15
2022-09-20T18:36:28.187Z,6.70
2022-09-20T18:38:57.817Z,8.40
2022-09-20T18:41:27.000Z,6.55
2022-09-20T18:43:55.978Z,10.27
2022-09-20T18:46:27.151Z,11.52
2022-09-20T18:48:55.897Z,7.95
2022-09-20T18:51:24.932Z,8.05
2022-09-20T18:53:53.287Z,7.15
2022-09-20T18:56:24.543Z,5.85
2022-09-20T18:58:53.764Z,7.05
2022-09-20T19:01:55.275Z,7.03
2022-09-20T19:04:47.099Z,7.18
2022-09-20T19:07:17.840Z,6.05
2022-09-20T19:09:49.590Z,8.43
2022-09-20T19:12:22.052Z,5.65
2022-09-20T19:14:58.077Z,9.05
2022-09-20T19:17:35.027Z,7.55
2022-09-20T19:20:04.007Z,9.82
2022-09-20T19:22:36.122Z,8.48
2022-09-20T19:25:12.394Z,6.40
2022-09-20T19:27:42.528Z,7.05
2022-09-20T19:30:14.570Z,6.10
2022-09-20T19:32:43.167Z,8.80
2022-09-20T19:35:17.814Z,6.88
2022-09-20T19:37:54.306Z,6.22
2022-09-20T19:40:26.319Z,6.82
2022-09-20T19:43:03.198Z,6.68
2022-09-20T19:45:34.603Z,7.30
2022-09-20T19:48:06.162Z,7.15
2022-09-20T19:50:36.722Z,7.57
2022-09-20T19:53:05.176Z,9.98
2022-09-20T19:55:33.800Z,9.00
2022-09-20T19:58:03.849Z,8.32
2022-09-20T20:00:34.331Z,8.85
2022-09-20T20:03:03.109Z,9.30
2022-09-20T20:05:31.692Z,7.03
2022-09-20T20:08:15.357Z,8.30
2022-09-20T20:10:49.819Z,10.10
2022-09-20T20:13:39.914Z,9.27
2022-09-20T20:16:11.888Z,6.78
2022-09-20T20:18:41.943Z,7.20
2022-09-20T20:21:14.238Z,7.50
2022-09-20T20:23:59.765Z,7.93
2022-09-20T20:26:27.819Z,8.30
2022-09-20T20:28:57.238Z,9.52
2022-09-20T20:31:25.355Z,11.63
2022-09-20T20:33:54.717Z,7.10
2022-09-20T20:36:22.856Z,41.20
2022-09-20T20:38:53.057Z,10.18
2022-09-20T20:41:21.718Z,16.23
2022-09-20T20:43:51.087Z,9.73
2022-09-20T20:46:20.627Z,11.85
2022-09-20T20:48:48.909Z,10.40
2022-09-20T20:51:17.894Z,5.85
2022-09-20T20:53:47.221Z,9.63
2022-09-20T20:56:16.732Z,5.82
2022-09-20T20:58:45.213Z,11.38
2022-09-20T21:01:14.649Z,9.05
2022-09-20T21:03:45.870Z,9.90
2022-09-20T21:06:14.829Z,10.98
2022-09-20T21:08:48.273Z,6.22
2022-09-20T21:11:18.710Z,8.70
2022-09-20T21:13:48.331Z,8.02
2022-09-20T21:16:17.083Z,6.63
2022-09-20T21:18:47.121Z,9.45
2022-09-20T21:21:16.651Z,10.80
2022-09-20T21:23:45.863Z,9.48
2022-09-20T21:26:15.256Z,10.48
2022-09-20T21:28:44.278Z,10.93
2022-09-20T21:31:13.128Z,14.82
2022-09-20T21:33:42.347Z,11.93
2022-09-20T21:36:13.329Z,13.40
2022-09-20T21:38:41.647Z,14.50
2022-09-20T21:41:11.279Z,13.55
2022-09-20T21:43:41.553Z,12.35
2022-09-20T21:46:13.142Z,16.35
2022-09-20T21:48:41.276Z,11.70
2022-09-20T21:51:11.647Z,10.70
2022-09-20T21:53:40.097Z,8.90
2022-09-20T21:56:09.665Z,11.60
2022-09-20T21:58:39.981Z,8.57
2022-09-20T22:01:10.048Z,16.42
2022-09-20T22:03:39.198Z,9.07
2022-09-20T22:06:13.137Z,10.55
2022-09-20T22:08:42.079Z,7.60
2022-09-20T22:11:15.025Z,9.10
2022-09-20T22:13:43.899Z,15.45
2022-09-20T22:16:12.861Z,16.77
2022-09-20T22:18:41.790Z,14.70
2022-09-20T22:21:10.684Z,15.20
2022-09-20T22:23:40.343Z,10.93
2022-09-20T22:26:10.434Z,10.90
2022-09-20T22:28:38.549Z,8.88
2022-09-20T22:31:10.759Z,6.50
2022-09-20T22:33:42.055Z,11.30
2022-09-20T22:36:10.279Z,9.98
2022-09-20T22:38:39.684Z,11.00
2022-09-20T22:41:07.721Z,12.30
2022-09-20T22:43:35.977Z,16.13
2022-09-20T22:46:05.220Z,13.75
2022-09-20T22:48:33.411Z,14.25
2022-09-20T22:51:01.772Z,12.27
2022-09-20T22:53:30.505Z,8.65
2022-09-20T22:56:07.293Z,11.35
2022-09-20T22:58:36.285Z,8.82
2022-09-20T23:01:06.163Z,12.13
2022-09-20T23:03:34.414Z,11.73
2022-09-20T23:06:03.136Z,20.05
2022-09-20T23:08:33.336Z,15.50
2022-09-20T23:11:02.640Z,12.77
2022-09-20T23:13:32.066Z,14.60
2022-09-20T23:16:00.165Z,13.95
2022-09-20T23:18:28.243Z,8.60
2022-09-20T23:21:00.471Z,11.38
2022-09-20T23:23:28.609Z,9.35
2022-09-20T23:25:56.807Z,9.38
2022-09-20T23:28:27.352Z,10.88
2022-09-20T23:31:04.594Z,7.20
2022-09-20T23:33:32.877Z,13.20
2022-09-20T23:36:00.979Z,14.43
2022-09-20T23:38:29.121Z,11.57
2022-09-20T23:40:57.607Z,7.72
2022-09-20T23:43:25.720Z,7.63
2022-09-20T23:45:53.807Z,14.02
2022-09-20T23:48:23.288Z,8.02
2022-09-20T23:50:51.401Z,9.43
2022-09-20T23:53:19.493Z,8.15
2022-09-20T23:55:47.543Z,12.18
2022-09-20T23:58:15.619Z,7.15
